This is the latest recevied weather packets stored in our database for station/object WAYLND-WX. If no packets are shown the sender has not sent any weather packets the latest 1 day(s).
| Time | Temp. | Humidity | Pressure | Rain* | Wind** | Luminosity | Snow |
|---|---|---|---|---|---|---|---|
| 1778118342 | 7.22° C | 48% | 986.4 hPa | 0 mm | - | - | - |
| 1778117458 | 7.22° C | 48% | 986.4 hPa | 0 mm | - | - | - |
| 1778116543 | 7.78° C | 48% | 986.4 hPa | 0 mm | - | - | - |
| 1778113859 | 8.33° C | 43% | 987.2 hPa | 0 mm | - | - | - |
| 1778112941 | 8.89° C | 43% | 987.2 hPa | 0 mm | - | - | - |
| 1778106656 | 10.56° C | 36% | 986.8 hPa | 0 mm | - | - | - |
| 1778099462 | 11.67° C | 34% | 986.1 hPa | 0 mm | - | - | - |
| 1778097676 | 11.67° C | 34% | 985.7 hPa | 0 mm | - | - | - |
| 1778096748 | 11.67° C | 36% | 986.2 hPa | 0 mm | - | - | - |
| 1778093147 | 11.67° C | 36% | 986 hPa | 0 mm | - | - | - |
| 1778085948 | 11.67° C | 37% | 986 hPa | 0 mm | - | - | - |
| 1778085060 | 11.11° C | 37% | 986 hPa | 0 mm | - | - | - |
| 1778080547 | 10° C | 44% | 985.8 hPa | 0 mm | - | - | - |
| 1778076079 | 7.78° C | 46% | 985.5 hPa | 0 mm | - | - | - |
| 1778072474 | 6.67° C | 57% | 984.9 hPa | 0 mm | - | - | - |
| 1778067063 | 3.33° C | 71% | 983.2 hPa | 0 mm | - | - | - |
| 1778065277 | 2.78° C | 71% | 983.2 hPa | 0 mm | - | - | - |
| 1778063462 | 2.78° C | 68% | 983.2 hPa | 0 mm | - | - | - |
| 1778062545 | 2.78° C | 68% | 983.2 hPa | 0 mm | - | - | - |
| 1778060745 | 2.78° C | 68% | 982 hPa | 0 mm | - | - | - |
| 1778059861 | 2.78° C | 68% | 982.5 hPa | 0 mm | - | - | - |
| 1778057144 | 3.33° C | 64% | 981.9 hPa | 0 mm | - | - | - |
| 1778056258 | 3.89° C | 66% | 982.4 hPa | 0 mm | - | - | - |
| 1778054479 | 3.89° C | 66% | 982.4 hPa | 0 mm | - | - | - |
| 1778053543 | 3.89° C | 67% | 982.2 hPa | 0 mm | - | - | - |
* Rain latest hour (hover to see other rain measurements)
** Current wind speed in m/s (hover to see current wind gust speed)